createdAt,value
2022-10-03T00:01:16.597Z,100198.00
2022-10-03T00:03:33.922Z,100200.00
2022-10-03T00:05:35.195Z,100204.00
2022-10-03T00:07:31.495Z,100207.00
2022-10-03T00:09:36.720Z,100203.00
2022-10-03T00:11:29.049Z,100206.00
2022-10-03T00:13:21.491Z,100210.00
2022-10-03T00:15:09.033Z,100211.00
2022-10-03T00:16:58.108Z,100213.00
2022-10-03T00:18:46.583Z,100208.00
2022-10-03T00:20:47.939Z,100217.00
2022-10-03T00:22:40.668Z,100210.00
2022-10-03T00:24:33.104Z,100206.00
2022-10-03T00:26:31.342Z,100220.00
2022-10-03T00:28:22.997Z,100219.00
2022-10-03T00:30:18.306Z,100214.00
2022-10-03T00:32:05.723Z,100222.00
2022-10-03T00:33:59.036Z,100223.00
2022-10-03T00:35:56.232Z,100215.00
2022-10-03T00:37:38.038Z,100220.00
2022-10-03T00:39:38.509Z,100223.00
2022-10-03T00:41:39.527Z,100226.00
2022-10-03T00:44:04.730Z,100235.00
2022-10-03T00:46:36.824Z,100236.00
2022-10-03T00:48:50.982Z,100239.00
2022-10-03T00:50:56.702Z,100237.00
2022-10-03T00:53:05.032Z,100241.00
2022-10-03T00:54:59.815Z,100237.00
2022-10-03T00:57:14.455Z,100240.00
2022-10-03T00:59:10.558Z,100239.00
2022-10-03T01:01:00.993Z,100245.00
2022-10-03T01:02:59.927Z,100246.00
2022-10-03T01:04:56.255Z,100240.00
2022-10-03T01:06:48.963Z,100247.00
2022-10-03T01:09:15.338Z,100256.00
2022-10-03T01:11:06.465Z,100253.00
2022-10-03T01:13:08.550Z,100257.00
2022-10-03T01:15:11.435Z,100256.00
2022-10-03T01:17:07.327Z,100259.00
2022-10-03T01:19:02.294Z,100262.00
2022-10-03T01:20:50.958Z,100264.00
2022-10-03T01:23:03.780Z,100260.00
2022-10-03T01:25:05.318Z,100268.00
2022-10-03T01:26:57.876Z,100267.00
2022-10-03T01:29:10.569Z,100257.00
2022-10-03T01:30:49.928Z,100268.00
2022-10-03T01:32:35.276Z,100260.00
2022-10-03T01:34:18.819Z,100258.00
2022-10-03T01:36:03.453Z,100258.00
2022-10-03T01:37:56.550Z,100261.00
2022-10-03T01:39:42.328Z,100259.00
2022-10-03T01:41:29.412Z,100261.00
2022-10-03T01:43:17.147Z,100262.00
2022-10-03T01:45:13.477Z,100266.00
2022-10-03T01:46:55.781Z,100260.00
2022-10-03T01:48:51.949Z,100273.00
2022-10-03T01:50:40.246Z,100264.00
2022-10-03T01:52:26.079Z,100271.00
2022-10-03T01:54:14.953Z,100275.00
2022-10-03T01:56:04.405Z,100266.00
2022-10-03T01:57:53.708Z,100275.00
2022-10-03T01:59:45.483Z,100270.00
2022-10-03T02:01:37.959Z,100268.00
2022-10-03T02:03:22.960Z,100276.00
2022-10-03T02:05:10.867Z,100276.00
2022-10-03T02:07:02.565Z,100270.00
2022-10-03T02:08:54.023Z,100280.00
2022-10-03T02:10:42.332Z,100275.00
2022-10-03T02:12:30.756Z,100285.00
2022-10-03T02:14:23.251Z,100280.00
2022-10-03T02:16:05.961Z,100281.00
2022-10-03T02:17:58.898Z,100284.00
2022-10-03T02:19:48.318Z,100292.00
2022-10-03T02:21:24.921Z,100285.00
2022-10-03T02:23:00.761Z,100290.00
2022-10-03T02:24:51.527Z,100290.00
2022-10-03T02:27:40.183Z,100287.00
2022-10-03T02:29:58.284Z,100290.00
2022-10-03T02:32:22.746Z,100291.00
2022-10-03T02:34:36.739Z,100292.00
2022-10-03T02:37:08.823Z,100297.00
2022-10-03T02:39:29.276Z,100293.00
2022-10-03T02:41:28.587Z,100301.00
2022-10-03T02:44:00.116Z,100303.00
2022-10-03T02:46:25.123Z,100307.00
2022-10-03T02:48:55.962Z,100296.00
2022-10-03T02:51:23.904Z,100308.00
2022-10-03T02:54:14.805Z,100303.00
2022-10-03T02:56:42.219Z,100300.00
2022-10-03T02:59:04.603Z,100305.00
2022-10-03T03:01:16.420Z,100304.00
2022-10-03T03:03:35.343Z,100305.00
2022-10-03T03:05:30.130Z,100312.00
2022-10-03T03:07:38.776Z,100307.00
2022-10-03T03:10:10.613Z,100313.00
2022-10-03T03:12:30.225Z,100307.00
2022-10-03T03:15:02.855Z,100318.00
2022-10-03T03:17:12.807Z,100331.00
2022-10-03T03:19:05.900Z,100320.00
2022-10-03T03:21:14.490Z,100324.00
2022-10-03T03:23:12.664Z,100323.00
2022-10-03T03:25:16.336Z,100317.00
2022-10-03T03:27:18.471Z,100336.00
2022-10-03T03:29:12.124Z,100316.00
2022-10-03T03:30:57.672Z,100319.00
2022-10-03T03:32:51.525Z,100314.00
2022-10-03T03:34:40.158Z,100315.00
2022-10-03T03:36:28.087Z,100325.00
2022-10-03T03:38:24.666Z,100320.00
2022-10-03T03:40:32.299Z,100318.00
2022-10-03T03:42:36.373Z,100314.00
2022-10-03T03:44:38.412Z,100322.00
2022-10-03T03:46:30.795Z,100315.00
2022-10-03T03:48:38.319Z,100325.00
2022-10-03T03:50:36.716Z,100307.00
2022-10-03T03:52:41.790Z,100309.00
2022-10-03T03:54:57.118Z,100323.00
2022-10-03T03:56:53.650Z,100319.00
2022-10-03T03:58:39.811Z,100321.00
2022-10-03T04:00:21.474Z,100317.00
2022-10-03T04:02:13.601Z,100313.00
2022-10-03T04:04:04.984Z,100316.00
2022-10-03T04:06:29.502Z,100311.00
2022-10-03T04:08:28.771Z,100323.00
2022-10-03T04:10:26.595Z,100318.00
2022-10-03T04:12:15.535Z,100326.00
2022-10-03T04:14:46.849Z,100331.00
2022-10-03T04:17:04.705Z,100335.00
2022-10-03T04:19:00.265Z,100326.00
2022-10-03T04:21:05.642Z,100335.00
2022-10-03T04:23:04.762Z,100337.00
2022-10-03T04:25:20.397Z,100335.00
2022-10-03T04:27:22.155Z,100348.00
2022-10-03T04:29:37.335Z,100325.00
2022-10-03T04:31:42.671Z,100341.00
2022-10-03T04:33:37.868Z,100339.00
2022-10-03T04:35:44.135Z,100342.00
2022-10-03T04:37:40.505Z,100344.00
2022-10-03T04:39:31.061Z,100345.00
2022-10-03T04:41:17.015Z,100354.00
2022-10-03T04:43:10.061Z,100347.00
2022-10-03T04:45:13.791Z,100343.00
2022-10-03T04:46:58.075Z,100351.00
2022-10-03T04:48:41.209Z,100343.00
2022-10-03T04:50:35.087Z,100344.00
2022-10-03T04:52:23.046Z,100343.00
2022-10-03T04:54:15.318Z,100343.00
2022-10-03T04:55:55.119Z,100344.00
2022-10-03T04:57:38.976Z,100346.00
2022-10-03T04:59:46.216Z,100344.00
2022-10-03T05:01:29.155Z,100353.00
2022-10-03T05:03:14.138Z,100344.00
2022-10-03T05:05:26.813Z,100348.00
2022-10-03T05:07:14.867Z,100352.00
2022-10-03T05:08:59.515Z,100348.00
2022-10-03T05:10:54.489Z,100345.00
2022-10-03T05:12:43.377Z,100342.00
2022-10-03T05:14:33.720Z,100349.00
2022-10-03T05:16:21.873Z,100354.00
2022-10-03T05:18:08.086Z,100349.00
2022-10-03T05:19:54.315Z,100351.00
2022-10-03T05:21:37.914Z,100350.00
2022-10-03T05:23:31.227Z,100352.00
2022-10-03T05:25:25.782Z,100359.00
2022-10-03T05:27:16.211Z,100347.00
2022-10-03T05:29:01.277Z,100362.00
2022-10-03T05:30:53.268Z,100350.00
2022-10-03T05:32:42.959Z,100358.00
2022-10-03T05:34:35.709Z,100360.00
2022-10-03T05:36:24.303Z,100356.00
2022-10-03T05:38:27.919Z,100356.00
2022-10-03T05:40:17.298Z,100367.00
2022-10-03T05:42:22.263Z,100364.00
2022-10-03T05:44:07.879Z,100368.00
2022-10-03T05:46:02.131Z,100362.00
2022-10-03T05:47:59.014Z,100366.00
2022-10-03T05:49:56.006Z,100355.00
2022-10-03T05:51:57.900Z,100364.00
2022-10-03T05:54:23.445Z,100360.00
2022-10-03T05:56:11.446Z,100359.00
2022-10-03T05:58:32.075Z,100372.00
2022-10-03T06:00:20.751Z,100360.00
2022-10-03T06:02:34.483Z,100366.00
2022-10-03T06:04:58.980Z,100368.00
2022-10-03T06:06:51.427Z,100365.00
2022-10-03T06:08:56.333Z,100372.00
2022-10-03T06:10:50.965Z,100379.00
2022-10-03T06:12:35.167Z,100375.00
2022-10-03T06:14:35.153Z,100378.00
2022-10-03T06:16:38.259Z,100384.00
2022-10-03T06:18:44.048Z,100389.00
2022-10-03T06:21:19.356Z,100392.00
2022-10-03T06:23:47.800Z,100387.00
2022-10-03T06:26:21.083Z,100396.00
2022-10-03T06:28:38.267Z,100393.00
2022-10-03T06:30:33.836Z,100395.00
2022-10-03T06:32:57.991Z,100397.00
2022-10-03T06:35:12.056Z,100394.00
2022-10-03T06:37:06.841Z,100398.00
2022-10-03T06:39:24.396Z,100392.00
2022-10-03T06:41:55.134Z,100404.00
2022-10-03T06:44:04.756Z,100393.00
2022-10-03T06:46:38.486Z,100397.00
2022-10-03T06:49:06.253Z,100384.00
2022-10-03T06:51:14.140Z,100394.00
2022-10-03T06:53:19.324Z,100391.00
2022-10-03T06:55:43.210Z,100396.00
2022-10-03T06:57:40.604Z,100397.00
2022-10-03T06:59:57.546Z,100397.00
2022-10-03T07:01:59.558Z,100396.00
2022-10-03T07:04:34.526Z,100399.00
2022-10-03T07:06:43.043Z,100399.00
2022-10-03T07:08:59.719Z,100396.00
2022-10-03T07:10:57.929Z,100399.00
2022-10-03T07:13:15.273Z,100409.00
2022-10-03T07:16:02.170Z,100405.00
2022-10-03T07:18:08.238Z,100403.00
2022-10-03T07:20:08.531Z,100404.00
2022-10-03T07:22:25.415Z,100405.00
2022-10-03T07:24:36.020Z,100414.00
2022-10-03T07:27:00.495Z,100414.00
2022-10-03T07:29:22.499Z,100416.00
2022-10-03T07:31:09.906Z,100414.00
2022-10-03T07:33:36.625Z,100419.00
2022-10-03T07:36:03.167Z,100417.00
2022-10-03T07:38:49.857Z,100431.00
2022-10-03T07:41:04.595Z,100423.00
2022-10-03T07:43:24.607Z,100434.00
2022-10-03T07:45:36.038Z,100434.00
2022-10-03T07:48:00.241Z,100432.00
2022-10-03T07:50:06.476Z,100426.00
2022-10-03T07:52:00.916Z,100436.00
2022-10-03T07:54:21.743Z,100440.00
2022-10-03T07:56:20.358Z,100442.00
2022-10-03T07:58:26.282Z,100437.00
2022-10-03T08:00:22.573Z,100435.00
2022-10-03T08:02:26.778Z,100435.00
2022-10-03T08:04:40.809Z,100441.00
2022-10-03T08:06:29.938Z,100429.00
2022-10-03T08:08:38.019Z,100433.00
2022-10-03T08:10:42.356Z,100430.00
2022-10-03T08:12:55.255Z,100431.00
2022-10-03T08:14:46.273Z,100434.00
2022-10-03T08:16:53.615Z,100444.00
2022-10-03T08:19:15.359Z,100429.00
2022-10-03T08:20:55.498Z,100434.00
2022-10-03T08:22:48.855Z,100445.00
2022-10-03T08:25:11.571Z,100452.00
2022-10-03T08:27:20.010Z,100441.00
2022-10-03T08:29:53.096Z,100454.00
2022-10-03T08:32:19.556Z,100445.00
2022-10-03T08:34:33.486Z,100441.00
2022-10-03T08:36:54.397Z,100450.00
2022-10-03T08:38:56.876Z,100453.00
2022-10-03T08:41:22.699Z,100452.00
2022-10-03T08:43:40.831Z,100455.00
2022-10-03T08:46:00.780Z,100452.00
2022-10-03T08:48:36.531Z,100453.00
2022-10-03T08:50:53.326Z,100453.00
2022-10-03T08:52:49.571Z,100455.00
2022-10-03T08:54:48.108Z,100465.00
2022-10-03T08:56:38.192Z,100455.00
2022-10-03T08:59:10.079Z,100464.00
2022-10-03T09:01:36.927Z,100460.00
2022-10-03T09:04:03.343Z,100456.00
2022-10-03T09:06:58.673Z,100448.00
2022-10-03T09:09:04.265Z,100450.00
2022-10-03T09:11:07.425Z,100449.00
2022-10-03T09:13:43.807Z,100456.00
2022-10-03T09:16:13.799Z,100459.00
2022-10-03T09:18:41.535Z,100457.00
2022-10-03T09:20:54.404Z,100457.00
2022-10-03T09:23:12.033Z,100454.00
2022-10-03T09:25:19.722Z,100453.00
2022-10-03T09:27:43.228Z,100448.00
2022-10-03T09:30:08.457Z,100454.00
2022-10-03T09:32:25.222Z,100440.00
2022-10-03T09:34:53.737Z,100447.00
2022-10-03T09:37:14.204Z,100435.00
2022-10-03T09:39:48.936Z,100458.00
2022-10-03T09:42:09.688Z,100445.00
2022-10-03T09:44:28.872Z,100446.00
2022-10-03T09:47:09.668Z,100441.00
2022-10-03T09:49:47.161Z,100448.00
2022-10-03T09:51:45.127Z,100444.00
2022-10-03T09:54:19.764Z,100455.00
2022-10-03T09:56:44.133Z,100443.00
2022-10-03T09:58:56.594Z,100450.00
2022-10-03T10:00:57.514Z,100451.00
2022-10-03T10:03:29.522Z,100443.00
2022-10-03T10:05:47.942Z,100441.00
2022-10-03T10:08:12.471Z,100442.00
2022-10-03T10:10:14.810Z,100440.00
2022-10-03T10:12:24.619Z,100433.00
2022-10-03T10:14:29.696Z,100442.00
2022-10-03T10:16:38.441Z,100445.00
2022-10-03T10:19:06.396Z,100434.00
2022-10-03T10:21:37.201Z,100438.00
2022-10-03T10:23:48.199Z,100429.00
2022-10-03T10:26:05.512Z,100431.00
2022-10-03T10:28:16.716Z,100431.00
2022-10-03T10:30:22.959Z,100435.00
2022-10-03T10:32:53.470Z,100439.00
2022-10-03T10:35:19.267Z,100441.00
2022-10-03T10:37:54.119Z,100433.00
2022-10-03T10:40:26.218Z,100436.00
2022-10-03T10:43:07.792Z,100427.00
2022-10-03T10:45:36.494Z,100434.00
2022-10-03T10:47:50.156Z,100435.00
2022-10-03T10:50:18.412Z,100440.00
2022-10-03T10:52:45.032Z,100438.00
2022-10-03T10:55:04.292Z,100437.00
2022-10-03T10:57:17.359Z,100434.00
2022-10-03T11:00:08.443Z,100418.00
2022-10-03T11:02:34.105Z,100429.00
2022-10-03T11:05:23.091Z,100425.00
2022-10-03T11:07:45.757Z,100425.00
2022-10-03T11:10:06.282Z,100428.00
2022-10-03T11:13:06.843Z,100424.00
2022-10-03T11:15:43.367Z,100426.00
2022-10-03T11:17:57.448Z,100424.00
2022-10-03T11:20:23.175Z,100422.00
2022-10-03T11:23:04.983Z,100429.00
2022-10-03T11:25:31.020Z,100421.00
2022-10-03T11:27:46.661Z,100416.00
2022-10-03T11:30:06.153Z,100409.00
2022-10-03T11:32:31.828Z,100422.00
2022-10-03T11:35:11.453Z,100417.00
2022-10-03T11:37:32.540Z,100413.00
2022-10-03T11:39:19.758Z,100414.00
2022-10-03T11:41:13.702Z,100417.00
2022-10-03T11:43:01.745Z,100411.00
2022-10-03T11:44:44.807Z,100413.00
2022-10-03T11:46:45.989Z,100413.00
2022-10-03T11:48:41.446Z,100405.00
2022-10-03T11:50:35.328Z,100412.00
2022-10-03T11:52:28.766Z,100402.00
2022-10-03T11:54:31.029Z,100400.00
2022-10-03T11:56:36.458Z,100405.00
2022-10-03T11:58:34.771Z,100404.00
2022-10-03T12:00:22.276Z,100407.00
2022-10-03T12:02:16.164Z,100412.00
2022-10-03T12:04:04.090Z,100411.00
2022-10-03T12:06:13.740Z,100400.00
2022-10-03T12:08:20.863Z,100411.00
2022-10-03T12:10:14.884Z,100408.00
2022-10-03T12:11:58.127Z,100404.00
2022-10-03T12:13:44.458Z,100401.00
2022-10-03T12:15:36.611Z,100403.00
2022-10-03T12:17:17.818Z,100397.00
2022-10-03T12:19:02.939Z,100388.00
2022-10-03T12:21:11.615Z,100389.00
2022-10-03T12:22:53.500Z,100392.00
2022-10-03T12:24:30.480Z,100393.00
2022-10-03T12:26:11.028Z,100392.00
2022-10-03T12:27:57.387Z,100389.00
2022-10-03T12:29:36.259Z,100389.00
2022-10-03T12:31:23.633Z,100397.00
2022-10-03T12:33:28.339Z,100390.00
2022-10-03T12:35:19.484Z,100393.00
2022-10-03T12:37:12.763Z,100399.00
2022-10-03T12:39:19.146Z,100398.00
2022-10-03T12:41:11.059Z,100392.00
2022-10-03T12:43:01.211Z,100391.00
2022-10-03T12:44:50.824Z,100395.00
2022-10-03T12:46:37.771Z,100400.00
2022-10-03T12:48:42.927Z,100390.00
2022-10-03T12:50:38.850Z,100392.00
2022-10-03T12:52:25.973Z,100385.00
2022-10-03T12:54:12.258Z,100388.00
2022-10-03T12:56:06.273Z,100386.00
2022-10-03T12:58:01.453Z,100388.00
2022-10-03T12:59:42.127Z,100382.00
2022-10-03T13:01:28.855Z,100388.00
2022-10-03T13:03:26.718Z,100391.00
2022-10-03T13:05:30.961Z,100393.00
2022-10-03T13:07:22.826Z,100399.00
2022-10-03T13:09:17.229Z,100397.00
2022-10-03T13:11:01.023Z,100397.00
2022-10-03T13:12:49.197Z,100389.00
2022-10-03T13:15:06.143Z,100405.00
2022-10-03T13:16:55.924Z,100399.00
2022-10-03T13:18:54.478Z,100401.00
2022-10-03T13:20:38.275Z,100399.00
2022-10-03T13:22:32.408Z,100411.00
2022-10-03T13:24:16.560Z,100395.00
2022-10-03T13:26:18.468Z,100393.00
2022-10-03T13:28:02.970Z,100400.00
2022-10-03T13:29:44.510Z,100406.00
2022-10-03T13:31:25.937Z,100394.00
2022-10-03T13:33:07.138Z,100398.00
2022-10-03T13:35:20.479Z,100399.00
2022-10-03T13:37:05.185Z,100392.00
2022-10-03T13:39:09.134Z,100398.00
2022-10-03T13:40:57.212Z,100393.00
2022-10-03T13:42:45.195Z,100389.00
2022-10-03T13:44:27.143Z,100392.00
2022-10-03T13:46:08.047Z,100382.00
2022-10-03T13:47:51.903Z,100391.00
2022-10-03T13:49:35.886Z,100391.00
2022-10-03T13:51:28.236Z,100393.00
2022-10-03T13:53:10.694Z,100394.00
2022-10-03T13:55:11.051Z,100392.00
2022-10-03T13:56:56.023Z,100385.00
2022-10-03T13:58:50.311Z,100390.00
2022-10-03T14:00:36.164Z,100382.00
2022-10-03T14:02:52.600Z,100392.00
2022-10-03T14:05:03.098Z,100383.00
2022-10-03T14:06:44.668Z,100388.00
2022-10-03T14:08:51.307Z,100383.00
2022-10-03T14:11:09.058Z,100390.00
2022-10-03T14:13:16.362Z,100379.00
2022-10-03T14:15:21.829Z,100376.00
2022-10-03T14:17:08.942Z,100387.00
2022-10-03T14:18:57.855Z,100379.00
2022-10-03T14:20:40.371Z,100372.00
2022-10-03T14:22:31.508Z,100376.00
2022-10-03T14:24:21.227Z,100372.00
2022-10-03T14:26:04.816Z,100372.00
2022-10-03T14:27:58.771Z,100374.00
2022-10-03T14:29:47.669Z,100374.00
2022-10-03T14:31:34.168Z,100376.00
2022-10-03T14:33:25.799Z,100369.00
2022-10-03T14:35:25.278Z,100371.00
2022-10-03T14:37:17.347Z,100369.00
2022-10-03T14:39:12.683Z,100368.00
2022-10-03T14:40:51.679Z,100356.00
2022-10-03T14:43:07.381Z,100361.00
2022-10-03T14:44:48.492Z,100369.00
2022-10-03T14:46:30.136Z,100360.00
2022-10-03T14:48:13.331Z,100373.00
2022-10-03T14:49:59.553Z,100362.00
2022-10-03T14:51:40.678Z,100364.00
2022-10-03T14:53:21.306Z,100359.00
2022-10-03T14:55:04.056Z,100362.00
2022-10-03T14:56:47.637Z,100350.00
2022-10-03T14:58:33.724Z,100359.00
2022-10-03T15:00:34.206Z,100352.00
2022-10-03T15:02:30.785Z,100352.00
2022-10-03T15:04:25.928Z,100356.00
2022-10-03T15:06:18.895Z,100348.00
2022-10-03T15:07:54.247Z,100349.00
2022-10-03T15:09:41.400Z,100345.00
2022-10-03T15:11:21.188Z,100351.00
2022-10-03T15:13:03.124Z,100344.00
2022-10-03T15:14:53.954Z,100347.00
2022-10-03T15:16:32.684Z,100339.00
2022-10-03T15:18:17.243Z,100341.00
2022-10-03T15:19:57.912Z,100337.00
2022-10-03T15:21:36.208Z,100339.00
2022-10-03T15:23:22.271Z,100335.00
2022-10-03T15:25:06.493Z,100331.00
2022-10-03T15:26:44.088Z,100330.00
2022-10-03T15:28:27.577Z,100331.00
2022-10-03T15:30:06.183Z,100324.00
2022-10-03T15:31:44.463Z,100324.00
2022-10-03T15:33:30.142Z,100324.00
2022-10-03T15:35:08.207Z,100324.00
2022-10-03T15:36:49.475Z,100324.00
2022-10-03T15:38:30.043Z,100321.00
2022-10-03T15:40:12.523Z,100335.00
2022-10-03T15:41:55.346Z,100321.00
2022-10-03T15:43:36.506Z,100323.00
2022-10-03T15:45:26.103Z,100323.00
2022-10-03T15:47:09.512Z,100324.00
2022-10-03T15:48:47.637Z,100312.00
2022-10-03T15:50:26.535Z,100310.00
2022-10-03T15:52:12.464Z,100312.00
2022-10-03T15:53:58.572Z,100310.00
2022-10-03T15:55:42.287Z,100310.00
2022-10-03T15:57:27.147Z,100310.00
2022-10-03T15:59:11.894Z,100306.00
2022-10-03T16:00:56.323Z,100304.00
2022-10-03T16:02:42.184Z,100301.00
2022-10-03T16:04:23.155Z,100302.00
2022-10-03T16:06:10.507Z,100292.00
2022-10-03T16:08:01.987Z,100297.00
2022-10-03T16:09:54.233Z,100297.00
2022-10-03T16:11:39.221Z,100300.00
2022-10-03T16:13:35.802Z,100296.00
2022-10-03T16:15:22.551Z,100295.00
2022-10-03T16:17:06.216Z,100295.00
2022-10-03T16:19:03.744Z,100305.00
2022-10-03T16:20:42.439Z,100302.00
2022-10-03T16:22:27.876Z,100297.00
2022-10-03T16:24:05.600Z,100300.00
2022-10-03T16:25:49.467Z,100290.00
2022-10-03T16:27:27.293Z,100297.00
2022-10-03T16:29:15.673Z,100291.00
2022-10-03T16:30:58.950Z,100294.00
2022-10-03T16:32:38.150Z,100288.00
2022-10-03T16:34:17.037Z,100299.00
2022-10-03T16:35:54.640Z,100289.00
2022-10-03T16:37:31.007Z,100293.00
2022-10-03T16:39:07.563Z,100293.00
2022-10-03T16:40:42.576Z,100297.00
2022-10-03T16:42:24.915Z,100289.00
2022-10-03T16:44:01.502Z,100293.00
2022-10-03T16:45:42.390Z,100299.00
2022-10-03T16:47:19.214Z,100296.00
2022-10-03T16:49:16.047Z,100302.00
2022-10-03T16:50:53.488Z,100311.00
2022-10-03T16:52:34.675Z,100306.00
2022-10-03T16:54:13.974Z,100301.00
2022-10-03T16:55:59.212Z,100301.00
2022-10-03T16:57:45.503Z,100297.00
2022-10-03T16:59:22.552Z,100297.00
2022-10-03T17:02:57.100Z,100292.00
2022-10-03T17:04:36.395Z,100288.00
2022-10-03T17:06:22.470Z,100299.00
2022-10-03T17:08:23.575Z,100295.00
2022-10-03T17:09:58.610Z,100296.00
2022-10-03T17:11:39.632Z,100298.00
2022-10-03T17:13:17.557Z,100303.00
2022-10-03T17:14:55.723Z,100295.00
2022-10-03T17:16:47.598Z,100297.00
2022-10-03T17:18:27.710Z,100299.00
2022-10-03T17:20:08.578Z,100292.00
2022-10-03T17:21:53.982Z,100296.00
2022-10-03T17:23:36.649Z,100287.00
2022-10-03T17:25:39.011Z,100285.00
2022-10-03T17:27:25.083Z,100290.00
2022-10-03T17:29:11.670Z,100288.00
2022-10-03T17:30:52.399Z,100290.00
2022-10-03T17:32:34.997Z,100291.00
2022-10-03T17:34:17.900Z,100294.00
2022-10-03T17:36:04.775Z,100302.00
2022-10-03T17:38:44.544Z,100302.00
2022-10-03T17:40:22.925Z,100296.00
2022-10-03T17:42:08.996Z,100301.00
2022-10-03T17:43:49.349Z,100306.00
2022-10-03T17:45:36.852Z,100297.00
2022-10-03T17:47:19.315Z,100297.00
2022-10-03T17:49:06.331Z,100302.00
2022-10-03T17:50:53.632Z,100300.00
2022-10-03T17:52:30.939Z,100297.00
2022-10-03T17:54:12.776Z,100293.00
2022-10-03T17:55:56.775Z,100299.00
2022-10-03T17:57:37.441Z,100286.00
2022-10-03T17:59:22.974Z,100286.00
2022-10-03T18:01:13.323Z,100291.00
2022-10-03T18:02:56.893Z,100289.00
2022-10-03T18:04:37.083Z,100291.00
2022-10-03T18:06:40.683Z,100285.00
2022-10-03T18:08:19.732Z,100285.00
2022-10-03T18:09:56.123Z,100289.00
2022-10-03T18:11:34.726Z,100289.00
2022-10-03T18:13:19.283Z,100293.00
2022-10-03T18:15:46.951Z,100295.00
2022-10-03T18:17:31.358Z,100288.00
2022-10-03T18:19:23.389Z,100289.00
2022-10-03T18:21:05.517Z,100284.00
2022-10-03T18:22:48.940Z,100284.00
2022-10-03T18:24:52.798Z,100282.00
2022-10-03T18:26:31.045Z,100285.00
2022-10-03T18:28:15.800Z,100277.00
2022-10-03T18:30:05.547Z,100269.00
2022-10-03T18:31:45.250Z,100278.00
2022-10-03T18:33:27.571Z,100285.00
2022-10-03T18:35:12.873Z,100283.00
2022-10-03T18:36:50.172Z,100276.00
2022-10-03T18:38:29.596Z,100281.00
2022-10-03T18:40:10.537Z,100275.00
2022-10-03T18:41:46.519Z,100269.00
2022-10-03T18:43:37.748Z,100270.00
2022-10-03T18:45:22.999Z,100274.00
2022-10-03T18:47:17.987Z,100269.00
2022-10-03T18:49:32.831Z,100268.00
2022-10-03T18:51:06.803Z,100274.00
2022-10-03T18:52:52.299Z,100266.00
2022-10-03T18:54:39.704Z,100268.00
2022-10-03T18:56:20.803Z,100260.00
2022-10-03T18:58:07.268Z,100254.00
2022-10-03T18:59:53.790Z,100253.00
2022-10-03T19:01:42.467Z,100250.00
2022-10-03T19:03:20.449Z,100253.00
2022-10-03T19:04:59.261Z,100247.00
2022-10-03T19:06:38.319Z,100251.00
2022-10-03T19:08:21.681Z,100248.00
2022-10-03T19:10:40.779Z,100248.00
2022-10-03T19:12:23.459Z,100252.00
2022-10-03T19:14:06.184Z,100246.00
2022-10-03T19:15:58.175Z,100255.00
2022-10-03T19:17:46.494Z,100265.00
2022-10-03T19:19:33.262Z,100267.00
2022-10-03T19:21:18.770Z,100252.00
2022-10-03T19:23:02.848Z,100252.00
2022-10-03T19:24:57.776Z,100252.00
2022-10-03T19:26:38.310Z,100251.00
2022-10-03T19:28:23.854Z,100263.00
2022-10-03T19:30:01.521Z,100265.00
2022-10-03T19:31:42.111Z,100262.00
2022-10-03T19:33:25.411Z,100270.00
2022-10-03T19:35:03.881Z,100264.00
2022-10-03T19:36:42.057Z,100260.00
2022-10-03T19:38:21.363Z,100274.00
2022-10-03T19:39:56.584Z,100270.00
2022-10-03T19:41:35.593Z,100275.00
2022-10-03T19:43:40.298Z,100279.00
2022-10-03T19:45:16.271Z,100278.00
2022-10-03T19:47:03.392Z,100275.00
2022-10-03T19:48:48.434Z,100277.00
2022-10-03T19:50:29.675Z,100286.00
2022-10-03T19:52:19.888Z,100288.00
2022-10-03T19:53:56.503Z,100287.00
2022-10-03T19:55:37.130Z,100289.00
2022-10-03T19:57:18.007Z,100279.00
2022-10-03T19:59:04.491Z,100287.00
2022-10-03T20:00:40.830Z,100271.00
2022-10-03T20:02:13.624Z,100272.00
2022-10-03T20:03:55.291Z,100264.00
2022-10-03T20:06:01.054Z,100269.00
2022-10-03T20:07:45.662Z,100271.00
2022-10-03T20:09:26.740Z,100264.00
2022-10-03T20:11:21.956Z,100271.00
2022-10-03T20:12:55.752Z,100267.00
2022-10-03T20:14:37.387Z,100263.00
2022-10-03T20:16:16.714Z,100258.00
2022-10-03T20:17:53.375Z,100256.00
2022-10-03T20:19:35.164Z,100264.00
2022-10-03T20:21:13.038Z,100263.00
2022-10-03T20:22:47.173Z,100271.00
2022-10-03T20:24:31.763Z,100269.00
2022-10-03T20:26:17.594Z,100271.00
2022-10-03T20:27:57.184Z,100263.00
2022-10-03T20:29:38.712Z,100273.00
2022-10-03T20:31:22.758Z,100266.00
2022-10-03T20:32:59.731Z,100270.00
2022-10-03T20:34:37.631Z,100270.00
2022-10-03T20:36:22.345Z,100263.00
2022-10-03T20:38:03.557Z,100268.00
2022-10-03T20:39:41.550Z,100273.00
2022-10-03T20:41:22.732Z,100273.00
2022-10-03T20:43:19.138Z,100268.00
2022-10-03T20:45:02.689Z,100270.00
2022-10-03T20:46:41.750Z,100275.00
2022-10-03T20:48:25.889Z,100281.00
2022-10-03T20:50:08.707Z,100278.00
2022-10-03T20:51:45.894Z,100274.00
2022-10-03T20:53:24.910Z,100273.00
2022-10-03T20:55:03.057Z,100261.00
2022-10-03T20:56:54.764Z,100267.00
2022-10-03T20:58:34.302Z,100259.00
2022-10-03T21:00:23.071Z,100267.00
2022-10-03T21:02:08.366Z,100263.00
2022-10-03T21:04:00.064Z,100254.00
2022-10-03T21:05:39.530Z,100251.00
2022-10-03T21:07:31.870Z,100256.00
2022-10-03T21:09:08.526Z,100255.00
2022-10-03T21:10:49.837Z,100260.00
2022-10-03T21:12:29.029Z,100259.00
2022-10-03T21:14:19.257Z,100255.00
2022-10-03T21:15:57.772Z,100252.00
2022-10-03T21:17:32.635Z,100250.00
2022-10-03T21:19:17.192Z,100246.00
2022-10-03T21:21:06.158Z,100245.00
2022-10-03T21:22:41.122Z,100255.00
2022-10-03T21:24:24.402Z,100257.00
2022-10-03T21:26:01.385Z,100257.00
2022-10-03T21:27:36.676Z,100260.00
2022-10-03T21:29:27.686Z,100260.00
2022-10-03T21:31:32.012Z,100251.00
2022-10-03T21:33:12.559Z,100253.00
2022-10-03T21:34:56.815Z,100245.00
2022-10-03T21:36:48.051Z,100241.00
2022-10-03T21:38:28.330Z,100241.00
2022-10-03T21:40:22.100Z,100239.00
2022-10-03T21:42:16.272Z,100243.00
2022-10-03T21:43:55.319Z,100236.00
2022-10-03T21:45:41.561Z,100234.00
2022-10-03T21:47:34.421Z,100234.00
2022-10-03T21:49:52.231Z,100246.00
2022-10-03T21:51:29.732Z,100238.00
2022-10-03T21:53:19.616Z,100241.00
2022-10-03T21:55:14.596Z,100238.00
2022-10-03T21:57:06.955Z,100241.00
2022-10-03T21:59:26.848Z,100230.00
2022-10-03T22:01:14.313Z,100235.00
2022-10-03T22:03:03.454Z,100223.00
2022-10-03T22:04:44.707Z,100233.00
2022-10-03T22:06:25.165Z,100223.00
2022-10-03T22:07:58.756Z,100226.00
2022-10-03T22:09:32.558Z,100220.00
2022-10-03T22:11:19.790Z,100224.00
2022-10-03T22:12:58.550Z,100227.00